Time,TemperatureF,DewpointF,PressureIn,WindDirection,WindDirectionDegrees,WindSpeedMPH,WindSpeedGustMPH,Humidity,HourlyPrecipIn,Conditions,Clouds,dailyrainin,SoftwareType,DateUTC
2013-10-28 00:05:00,35.6,35.1,29.84,SW,225,0.0,-999.0,98,-99.99,,,0.00,Acu-Link.com,2013-10-28 04:05:00,
2013-10-28 00:20:00,35.6,35.1,29.84,SSE,157,0.0,-999.0,98,-99.99,,,0.00,Acu-Link.com,2013-10-28 04:20:00,
2013-10-28 00:35:00,36.0,35.5,29.84,SSE,157,0.0,-999.0,98,-99.99,,,0.00,Acu-Link.com,2013-10-28 04:35:00,
2013-10-28 00:51:00,35.2,34.7,29.84,SE,135,0.0,-999.0,98,-99.99,,,0.00,Acu-Link.com,2013-10-28 04:51:00,
2013-10-28 01:06:00,34.7,34.2,29.84,East,90,0.0,-999.0,98,-99.99,,,0.00,Acu-Link.com,2013-10-28 05:06:00,
2013-10-28 01:21:00,34.5,34.0,29.84,ESE,112,0.0,-999.0,98,-99.99,,,0.00,Acu-Link.com,2013-10-28 05:21:00,
2013-10-28 01:36:00,34.2,33.7,29.84,East,90,0.0,-999.0,98,-99.99,,,0.00,Acu-Link.com,2013-10-28 05:36:00,
2013-10-28 01:52:00,34.2,33.7,29.85,NE,45,0.0,-999.0,98,-99.99,,,0.00,Acu-Link.com,2013-10-28 05:52:00,
2013-10-28 02:07:00,34.2,33.7,29.85,ENE,67,0.0,-999.0,98,-99.99,,,0.00,Acu-Link.com,2013-10-28 06:07:00,
2013-10-28 02:22:00,34.2,33.7,29.84,East,90,0.0,-999.0,98,-99.99,,,0.00,Acu-Link.com,2013-10-28 06:22:00,
2013-10-28 02:37:00,34.9,34.4,29.84,SE,135,0.0,-999.0,98,-99.99,,,0.00,Acu-Link.com,2013-10-28 06:37:00,
2013-10-28 02:52:00,34.9,34.4,29.85,ESE,112,0.0,-999.0,98,-99.99,,,0.00,Acu-Link.com,2013-10-28 06:52:00,
2013-10-28 03:08:00,34.9,34.4,29.85,NNE,22,0.0,-999.0,98,-99.99,,,0.00,Acu-Link.com,2013-10-28 07:08:00,
2013-10-28 03:23:00,34.9,34.4,29.85,SE,135,0.0,-999.0,98,-99.99,,,0.00,Acu-Link.com,2013-10-28 07:23:00,
2013-10-28 03:38:00,35.2,34.7,29.85,ESE,112,0.0,-999.0,98,-99.99,,,0.00,Acu-Link.com,2013-10-28 07:38:00,
2013-10-28 03:53:00,37.2,33.1,29.85,North,0,0.0,-999.0,85,-99.99,,,0.00,Acu-Link.com,2013-10-28 07:53:00,
2013-10-28 04:09:00,38.7,32.4,29.86,NNE,22,0.0,-999.0,78,-99.99,,,0.00,Acu-Link.com,2013-10-28 08:09:00,
2013-10-28 04:24:00,39.9,30.2,29.86,SSE,157,0.0,-999.0,68,-99.99,,,0.00,Acu-Link.com,2013-10-28 08:24:00,
2013-10-28 04:39:00,40.5,31.1,29.85,East,90,0.0,-999.0,69,-99.99,,,0.00,Acu-Link.com,2013-10-28 08:39:00,
2013-10-28 04:54:00,40.6,34.3,29.85,ESE,112,0.0,-999.0,78,-99.99,,,0.00,Acu-Link.com,2013-10-28 08:54:00,
2013-10-28 05:09:00,41.0,36.5,29.85,NNE,22,0.0,-999.0,84,-99.99,,,0.00,Acu-Link.com,2013-10-28 09:09:00,
2013-10-28 05:24:00,41.5,37.3,29.86,NNE,22,0.0,-999.0,85,-99.99,,,0.00,Acu-Link.com,2013-10-28 09:24:00,
2013-10-28 05:39:00,42.1,37.9,29.86,SSE,157,0.0,-999.0,85,-99.99,,,0.00,Acu-Link.com,2013-10-28 09:39:00,
2013-10-28 05:54:00,42.4,39.4,29.86,ESE,112,0.0,-999.0,89,-99.99,,,0.00,Acu-Link.com,2013-10-28 09:54:00,
2013-10-28 06:10:00,42.4,41.9,29.85,NE,45,0.0,-999.0,98,-99.99,,,0.00,Acu-Link.com,2013-10-28 10:10:00,
2013-10-28 06:25:00,42.6,42.1,29.86,East,90,4.2,-999.0,98,-99.99,,,0.00,Acu-Link.com,2013-10-28 10:25:00,
2013-10-28 06:40:00,43.0,42.5,29.86,NNE,22,1.7,-999.0,98,-99.99,,,0.00,Acu-Link.com,2013-10-28 10:40:00,
2013-10-28 06:55:00,43.2,42.7,29.87,NE,45,0.0,-999.0,98,-99.99,,,0.00,Acu-Link.com,2013-10-28 10:55:00,
2013-10-28 07:10:00,43.3,42.8,29.88,West,270,0.0,-999.0,98,-99.99,,,0.00,Acu-Link.com,2013-10-28 11:10:00,
2013-10-28 07:25:00,43.5,43.0,29.88,North,0,0.0,-999.0,98,-99.99,,,0.00,Acu-Link.com,2013-10-28 11:25:00,
2013-10-28 07:40:00,43.5,43.0,29.88,NE,45,2.2,-999.0,98,-99.99,,,0.00,Acu-Link.com,2013-10-28 11:40:00,
2013-10-28 07:55:00,44.1,43.6,29.90,SE,135,2.2,-999.0,98,-99.99,,,0.00,Acu-Link.com,2013-10-28 11:55:00,
2013-10-28 08:11:00,44.1,43.6,29.90,ESE,112,0.0,-999.0,98,-99.99,,,0.00,Acu-Link.com,2013-10-28 12:11:00,
2013-10-28 08:26:00,44.2,43.7,29.90,West,270,0.0,-999.0,98,-99.99,,,0.00,Acu-Link.com,2013-10-28 12:26:00,
2013-10-28 08:41:00,45.1,44.6,29.91,SE,135,0.0,-999.0,98,-99.99,,,0.00,Acu-Link.com,2013-10-28 12:41:00,
2013-10-28 08:56:00,46.0,45.5,29.92,ESE,112,0.0,-999.0,98,-99.99,,,0.00,Acu-Link.com,2013-10-28 12:56:00,
2013-10-28 09:11:00,46.4,45.9,29.93,SSE,157,0.0,-999.0,98,-99.99,,,0.00,Acu-Link.com,2013-10-28 13:11:00,
2013-10-28 09:26:00,46.8,46.3,29.94,SSE,157,0.0,-999.0,98,-99.99,,,0.00,Acu-Link.com,2013-10-28 13:26:00,
2013-10-28 09:41:00,47.7,47.2,29.94,SSE,157,0.0,-999.0,98,-99.99,,,0.00,Acu-Link.com,2013-10-28 13:41:00,
2013-10-28 09:56:00,48.9,48.4,29.95,West,270,0.0,-999.0,98,-99.99,,,0.00,Acu-Link.com,2013-10-28 13:56:00,
2013-10-28 10:11:00,48.7,48.2,29.96,SW,225,0.0,-999.0,98,-99.99,,,0.00,Acu-Link.com,2013-10-28 14:11:00,
2013-10-28 10:27:00,48.9,48.4,29.96,West,270,0.0,-999.0,98,-99.99,,,0.00,Acu-Link.com,2013-10-28 14:27:00,
2013-10-28 10:42:00,49.1,48.6,29.96,SW,225,0.0,-999.0,98,-99.99,,,0.00,Acu-Link.com,2013-10-28 14:42:00,
2013-10-28 10:57:00,49.6,49.1,29.95,WNW,292,0.0,-999.0,98,-99.99,,,0.00,Acu-Link.com,2013-10-28 14:57:00,
2013-10-28 11:12:00,50.4,49.9,29.97,North,0,0.0,-999.0,98,-99.99,,,0.00,Acu-Link.com,2013-10-28 15:12:00,
2013-10-28 11:27:00,50.7,50.2,29.96,ENE,67,0.0,-999.0,98,-99.99,,,0.00,Acu-Link.com,2013-10-28 15:27:00,
2013-10-28 11:42:00,50.7,50.2,29.96,East,90,2.7,-999.0,98,-99.99,,,0.00,Acu-Link.com,2013-10-28 15:42:00,
2013-10-28 11:57:00,51.4,48.9,29.96,East,90,2.7,-999.0,91,-99.99,,,0.00,Acu-Link.com,2013-10-28 15:57:00,
2013-10-28 12:12:00,52.0,49.5,29.96,ENE,67,3.2,-999.0,91,-99.99,,,0.00,Acu-Link.com,2013-10-28 16:12:00,
2013-10-28 12:27:00,52.2,49.4,29.96,East,90,3.2,-999.0,90,-99.99,,,0.00,Acu-Link.com,2013-10-28 16:27:00,
2013-10-28 12:43:00,52.9,49.7,29.96,NE,45,2.7,-999.0,89,-99.99,,,0.00,Acu-Link.com,2013-10-28 16:43:00,
2013-10-28 12:58:00,53.6,50.1,29.96,ENE,67,2.7,-999.0,88,-99.99,,,0.00,Acu-Link.com,2013-10-28 16:58:00,
2013-10-28 13:13:00,54.5,50.4,29.96,East,90,2.2,-999.0,86,-99.99,,,0.00,Acu-Link.com,2013-10-28 17:13:00,
2013-10-28 13:28:00,55.0,51.2,29.95,ESE,112,1.7,-999.0,87,-99.99,,,0.00,Acu-Link.com,2013-10-28 17:28:00,
2013-10-28 13:43:00,55.2,51.4,29.94,ENE,67,4.7,-999.0,87,-99.99,,,0.00,Acu-Link.com,2013-10-28 17:43:00,
2013-10-28 13:58:00,54.9,51.4,29.93,East,90,3.2,-999.0,88,-99.99,,,0.00,Acu-Link.com,2013-10-28 17:58:00,
2013-10-28 14:13:00,55.8,52.0,29.93,ENE,67,0.0,-999.0,87,-99.99,,,0.00,Acu-Link.com,2013-10-28 18:13:00,
2013-10-28 14:28:00,56.5,52.4,29.92,ESE,112,2.2,-999.0,86,-99.99,,,0.00,Acu-Link.com,2013-10-28 18:28:00,
2013-10-28 14:43:00,56.8,52.7,29.92,WNW,292,0.0,-999.0,86,-99.99,,,0.00,Acu-Link.com,2013-10-28 18:43:00,
2013-10-28 14:58:00,57.7,52.9,29.92,NW,315,0.0,-999.0,84,-99.99,,,0.00,Acu-Link.com,2013-10-28 18:58:00,
2013-10-28 15:14:00,58.8,53.3,29.92,NE,45,3.7,-999.0,82,-99.99,,,0.00,Acu-Link.com,2013-10-28 19:14:00,
2013-10-28 15:29:00,57.9,53.4,29.92,East,90,1.7,-999.0,85,-99.99,,,0.00,Acu-Link.com,2013-10-28 19:29:00,
2013-10-28 15:44:00,58.8,54.0,29.92,SE,135,2.2,-999.0,84,-99.99,,,0.00,Acu-Link.com,2013-10-28 19:44:00,
2013-10-28 15:59:00,58.6,53.8,29.92,ESE,112,0.0,-999.0,84,-99.99,,,0.00,Acu-Link.com,2013-10-28 19:59:00,
2013-10-28 16:14:00,61.0,54.8,29.92,NNE,22,0.0,-999.0,80,-99.99,,,0.00,Acu-Link.com,2013-10-28 20:14:00,
2013-10-28 16:29:00,60.3,54.8,29.92,SW,225,0.0,-999.0,82,-99.99,,,0.00,Acu-Link.com,2013-10-28 20:29:00,
2013-10-28 16:45:00,61.5,55.3,29.92,WSW,247,0.0,-999.0,80,-99.99,,,0.00,Acu-Link.com,2013-10-28 20:45:00,
2013-10-28 17:00:00,62.4,55.4,29.92,WNW,292,0.0,-999.0,78,-99.99,,,0.00,Acu-Link.com,2013-10-28 21:00:00,
2013-10-28 17:15:00,61.3,55.1,29.92,ENE,67,0.0,-999.0,80,-99.99,,,0.00,Acu-Link.com,2013-10-28 21:15:00,
2013-10-28 17:30:00,61.2,55.7,29.93,ESE,112,0.0,-999.0,82,-99.99,,,0.00,Acu-Link.com,2013-10-28 21:30:00,
2013-10-28 17:45:00,60.4,54.9,29.92,SE,135,0.0,-999.0,82,-99.99,,,0.00,Acu-Link.com,2013-10-28 21:45:00,
2013-10-28 18:00:00,59.9,55.1,29.94,SW,225,0.0,-999.0,84,-99.99,,,0.00,Acu-Link.com,2013-10-28 22:00:00,
2013-10-28 18:15:00,59.5,55.0,29.94,NNE,22,0.0,-999.0,85,-99.99,,,0.00,Acu-Link.com,2013-10-28 22:15:00,
2013-10-28 18:30:00,58.6,54.7,29.94,SE,135,0.0,-999.0,87,-99.99,,,0.00,Acu-Link.com,2013-10-28 22:30:00,
2013-10-28 18:45:00,58.1,54.9,29.94,NNE,22,0.0,-999.0,89,-99.99,,,0.00,Acu-Link.com,2013-10-28 22:45:00,
2013-10-28 19:01:00,57.4,56.8,29.94,NNE,22,0.0,-999.0,98,-99.99,,,0.00,Acu-Link.com,2013-10-28 23:01:00,
2013-10-28 19:16:00,57.0,56.4,29.95,WSW,247,0.0,-999.0,98,-99.99,,,0.00,Acu-Link.com,2013-10-28 23:16:00,
2013-10-28 19:31:00,56.5,55.9,29.95,NE,45,0.0,-999.0,98,-99.99,,,0.00,Acu-Link.com,2013-10-28 23:31:00,
2013-10-28 19:46:00,56.3,55.7,29.96,NW,315,0.0,-999.0,98,-99.99,,,0.00,Acu-Link.com,2013-10-28 23:46:00,
2013-10-28 20:01:00,56.1,55.5,29.96,NNW,337,0.0,-999.0,98,-99.99,,,0.00,Acu-Link.com,2013-10-29 00:01:00,
2013-10-28 20:16:00,55.8,55.2,29.97,South,180,0.0,-999.0,98,-99.99,,,0.00,Acu-Link.com,2013-10-29 00:16:00,
2013-10-28 20:31:00,55.4,54.8,29.98,SE,135,0.0,-999.0,98,-99.99,,,0.00,Acu-Link.com,2013-10-29 00:31:00,
2013-10-28 20:46:00,55.0,54.4,29.97,NNE,22,0.0,-999.0,98,-99.99,,,0.00,Acu-Link.com,2013-10-29 00:46:00,
2013-10-28 21:01:00,54.9,54.3,29.97,NW,315,0.0,-999.0,98,-99.99,,,0.00,Acu-Link.com,2013-10-29 01:01:00,
2013-10-28 21:17:00,54.7,54.1,29.97,WNW,292,0.0,-999.0,98,-99.99,,,0.00,Acu-Link.com,2013-10-29 01:17:00,
2013-10-28 21:32:00,54.3,53.7,29.97,West,270,0.0,-999.0,98,-99.99,,,0.00,Acu-Link.com,2013-10-29 01:32:00,
2013-10-28 21:47:00,53.8,53.2,29.98,West,270,0.0,-999.0,98,-99.99,,,0.00,Acu-Link.com,2013-10-29 01:47:00,
2013-10-28 22:02:00,53.2,52.6,29.97,WNW,292,0.0,-999.0,98,-99.99,,,0.00,Acu-Link.com,2013-10-29 02:02:00,
2013-10-28 22:17:00,52.9,52.4,29.98,West,270,0.0,-999.0,98,-99.99,,,0.00,Acu-Link.com,2013-10-29 02:17:00,
2013-10-28 22:32:00,52.0,51.5,29.98,SW,225,0.0,-999.0,98,-99.99,,,0.00,Acu-Link.com,2013-10-29 02:32:00,
2013-10-28 22:47:00,50.7,50.2,29.99,SW,225,0.0,-999.0,98,-99.99,,,0.00,Acu-Link.com,2013-10-29 02:47:00,
2013-10-28 23:02:00,50.4,49.9,29.99,West,270,0.0,-999.0,98,-99.99,,,0.00,Acu-Link.com,2013-10-29 03:02:00,
2013-10-28 23:17:00,49.6,49.1,29.99,NNE,22,0.0,-999.0,98,-99.99,,,0.00,Acu-Link.com,2013-10-29 03:17:00,
2013-10-28 23:32:00,48.2,47.7,29.99,West,270,0.0,-999.0,98,-99.99,,,0.00,Acu-Link.com,2013-10-29 03:32:00,
2013-10-28 23:48:00,47.5,47.0,30.00,ESE,112,0.0,-999.0,98,-99.99,,,0.00,Acu-Link.com,2013-10-29 03:48:00,